createdAt,value
2023-05-20T00:00:38.719Z,10.21
2023-05-20T00:06:02.606Z,10.19
2023-05-20T00:11:25.036Z,10.17
2023-05-20T00:16:47.310Z,10.19
2023-05-20T00:22:09.632Z,10.19
2023-05-20T00:27:32.045Z,10.18
2023-05-20T00:32:54.485Z,10.20
2023-05-20T00:38:16.768Z,10.22
2023-05-20T00:43:39.067Z,10.19
2023-05-20T00:49:03.735Z,10.17
2023-05-20T00:54:26.301Z,10.14
2023-05-20T00:59:49.180Z,10.13
2023-05-20T01:05:12.508Z,10.11
2023-05-20T01:10:36.744Z,10.09
2023-05-20T01:16:01.775Z,10.09
2023-05-20T01:21:24.905Z,10.08
2023-05-20T01:26:48.789Z,10.07
2023-05-20T01:32:14.977Z,10.07
2023-05-20T01:37:40.662Z,10.07
2023-05-20T01:43:04.794Z,10.06
2023-05-20T01:48:28.725Z,10.05
2023-05-20T01:53:51.309Z,10.03
2023-05-20T01:59:14.165Z,10.01
2023-05-20T02:04:36.778Z,9.98
2023-05-20T02:10:00.020Z,9.97
2023-05-20T02:15:22.824Z,9.97
2023-05-20T02:20:47.103Z,9.94
2023-05-20T02:26:10.630Z,9.91
2023-05-20T02:31:33.043Z,9.90
2023-05-20T02:36:55.326Z,9.89
2023-05-20T02:42:18.959Z,9.89
2023-05-20T02:47:41.340Z,9.90
2023-05-20T02:53:03.810Z,9.91
2023-05-20T02:58:26.797Z,9.89
2023-05-20T03:03:49.447Z,9.87
2023-05-20T03:09:11.888Z,9.87
2023-05-20T03:14:34.234Z,9.86
2023-05-20T03:19:56.601Z,9.85
2023-05-20T03:25:19.235Z,9.85
2023-05-20T03:30:42.143Z,9.87
2023-05-20T03:36:04.515Z,9.86
2023-05-20T03:41:26.871Z,9.87
2023-05-20T03:46:49.210Z,9.90
2023-05-20T03:52:11.605Z,9.94
2023-05-20T03:57:34.243Z,9.95
2023-05-20T04:02:56.739Z,9.98
2023-05-20T04:08:19.553Z,10.05
2023-05-20T04:13:43.813Z,10.09
2023-05-20T04:19:06.220Z,10.13
2023-05-20T04:24:28.543Z,10.19
2023-05-20T04:29:50.838Z,10.21
2023-05-20T04:35:14.209Z,10.20
2023-05-20T04:40:36.674Z,10.20
2023-05-20T04:46:00.208Z,10.18
2023-05-20T04:51:23.064Z,10.17
2023-05-20T04:56:46.547Z,10.23
2023-05-20T05:02:09.028Z,10.34
2023-05-20T05:07:31.404Z,10.45
2023-05-20T05:12:53.736Z,10.60
2023-05-20T05:18:17.734Z,10.73
2023-05-20T05:23:40.130Z,10.82
2023-05-20T05:29:02.395Z,10.99
2023-05-20T05:34:24.832Z,11.10
2023-05-20T05:39:47.178Z,11.23
2023-05-20T05:45:10.116Z,11.34
2023-05-20T05:50:32.604Z,11.44
2023-05-20T05:55:55.467Z,11.60
2023-05-20T06:01:17.804Z,11.68
2023-05-20T06:06:40.237Z,11.74
2023-05-20T06:12:03.227Z,11.78
2023-05-20T06:17:26.164Z,11.96
2023-05-20T06:22:49.141Z,11.99
2023-05-20T06:28:12.915Z,12.11
2023-05-20T06:33:36.969Z,12.26
2023-05-20T06:38:59.970Z,12.31
2023-05-20T06:44:23.048Z,12.43
2023-05-20T06:49:47.537Z,12.65
2023-05-20T06:55:10.412Z,12.72
2023-05-20T07:00:32.820Z,12.82
2023-05-20T07:05:55.517Z,12.87
2023-05-20T07:11:17.800Z,12.97
2023-05-20T07:16:40.807Z,13.08
2023-05-20T07:22:03.642Z,13.23
2023-05-20T07:27:25.929Z,13.53
2023-05-20T07:32:48.283Z,13.82
2023-05-20T07:38:11.233Z,14.18
2023-05-20T07:43:33.631Z,14.21
2023-05-20T07:48:55.925Z,14.41
2023-05-20T07:54:18.725Z,14.52
2023-05-20T07:59:41.467Z,14.81
2023-05-20T08:05:05.210Z,15.12
2023-05-20T08:10:28.347Z,15.36
2023-05-20T08:15:51.174Z,15.42
2023-05-20T08:21:14.625Z,15.95
2023-05-20T08:26:36.993Z,16.35
2023-05-20T08:31:59.626Z,16.69
2023-05-20T08:37:22.330Z,16.87
2023-05-20T08:42:47.262Z,17.02
2023-05-20T08:48:11.170Z,17.23
2023-05-20T08:53:36.307Z,17.29
2023-05-20T08:58:59.436Z,17.15
2023-05-20T09:04:23.044Z,17.41
2023-05-20T09:09:47.478Z,17.34
2023-05-20T09:15:10.718Z,17.41
2023-05-20T09:20:35.134Z,17.37
2023-05-20T09:25:58.678Z,17.41
2023-05-20T09:31:22.840Z,17.45
2023-05-20T09:36:49.378Z,18.01
2023-05-20T09:42:20.890Z,17.60
2023-05-20T09:47:45.553Z,18.22
2023-05-20T09:53:10.333Z,18.87
2023-05-20T09:58:36.911Z,19.56
2023-05-20T10:04:03.508Z,19.56
2023-05-20T10:09:42.238Z,20.58
2023-05-20T10:15:26.610Z,21.34
2023-05-20T10:21:01.735Z,21.54
2023-05-20T10:26:27.015Z,21.21
2023-05-20T10:31:52.678Z,21.00
2023-05-20T10:37:20.192Z,21.95
2023-05-20T10:42:49.959Z,21.55
2023-05-20T10:48:15.275Z,22.40
2023-05-20T10:53:47.052Z,21.56
2023-05-20T10:59:10.830Z,21.67
2023-05-20T11:04:35.204Z,21.74
2023-05-20T11:10:04.463Z,21.86
2023-05-20T11:15:29.335Z,22.24
2023-05-20T11:20:54.561Z,23.09
2023-05-20T11:26:18.454Z,22.31
2023-05-20T11:31:41.150Z,21.92
2023-05-20T11:37:11.908Z,22.17
2023-05-20T11:42:34.955Z,21.13
2023-05-20T11:48:08.287Z,20.60
2023-05-20T11:53:38.924Z,20.51
2023-05-20T11:59:06.886Z,23.00
2023-05-20T12:04:29.329Z,23.18
2023-05-20T12:09:51.969Z,23.09
2023-05-20T12:15:14.681Z,22.83
2023-05-20T12:20:38.752Z,23.85
2023-05-20T12:26:01.561Z,23.55
2023-05-20T12:31:23.992Z,22.73
2023-05-20T12:36:46.652Z,22.20
2023-05-20T12:42:09.351Z,22.54
2023-05-20T12:47:33.352Z,23.66
2023-05-20T12:52:55.937Z,24.38
2023-05-20T12:58:18.479Z,23.86
2023-05-20T13:03:40.997Z,23.92
2023-05-20T13:09:03.356Z,22.60
2023-05-20T13:14:26.279Z,22.83
2023-05-20T13:19:49.405Z,23.11
2023-05-20T13:25:12.396Z,23.59
2023-05-20T13:30:35.154Z,24.12
2023-05-20T13:35:57.718Z,24.13
2023-05-20T13:41:20.094Z,23.72
2023-05-20T13:46:42.614Z,23.72
2023-05-20T13:52:05.630Z,23.57
2023-05-20T13:57:28.354Z,23.27
2023-05-20T14:02:50.857Z,23.59
2023-05-20T14:08:13.754Z,22.97
2023-05-20T14:13:36.821Z,22.52
2023-05-20T14:18:59.337Z,22.83
2023-05-20T14:24:23.825Z,23.40
2023-05-20T14:29:46.484Z,23.78
2023-05-20T14:35:08.787Z,24.09
2023-05-20T14:40:31.419Z,24.24
2023-05-20T14:45:53.827Z,24.19
2023-05-20T14:51:16.158Z,25.63
2023-05-20T14:56:38.532Z,25.09
2023-05-20T15:02:01.513Z,24.51
2023-05-20T15:07:24.614Z,25.23
2023-05-20T15:12:46.981Z,24.53
2023-05-20T15:18:09.821Z,24.01
2023-05-20T15:23:32.308Z,24.44
2023-05-20T15:28:54.613Z,25.05
2023-05-20T15:34:17.053Z,25.33
2023-05-20T15:39:39.767Z,25.52
2023-05-20T15:45:02.237Z,25.14
2023-05-20T15:50:25.063Z,25.21
2023-05-20T15:55:47.613Z,25.81
2023-05-20T16:01:11.480Z,26.74
2023-05-20T16:06:34.561Z,27.26
2023-05-20T16:11:56.824Z,26.07
2023-05-20T16:17:20.789Z,25.87
2023-05-20T16:22:43.063Z,25.63
2023-05-20T16:28:05.425Z,26.26
2023-05-20T16:33:27.789Z,26.40
2023-05-20T16:38:50.089Z,25.86
2023-05-20T16:44:12.400Z,25.90
2023-05-20T16:49:34.991Z,25.92
2023-05-20T16:54:59.019Z,25.88
2023-05-20T17:00:22.701Z,25.93
2023-05-20T17:05:45.199Z,25.47
2023-05-20T17:11:07.674Z,24.92
2023-05-20T17:16:30.137Z,24.84
2023-05-20T17:21:52.624Z,23.79
2023-05-20T17:27:15.741Z,23.87
2023-05-20T17:32:38.983Z,23.87
2023-05-20T17:38:01.440Z,23.65
2023-05-20T17:43:25.609Z,23.39
2023-05-20T17:48:48.004Z,22.96
2023-05-20T17:54:10.445Z,22.56
2023-05-20T17:59:34.348Z,22.16
2023-05-20T18:04:56.752Z,21.74
2023-05-20T18:10:19.413Z,21.27
2023-05-20T18:15:41.747Z,20.72
2023-05-20T18:21:05.777Z,20.13
2023-05-20T18:26:28.484Z,19.74
2023-05-20T18:31:52.058Z,19.29
2023-05-20T18:37:15.012Z,18.94
2023-05-20T18:42:37.478Z,18.61
2023-05-20T18:48:01.123Z,18.35
2023-05-20T18:53:24.014Z,18.11
2023-05-20T18:58:46.561Z,17.88
2023-05-20T19:04:09.254Z,17.67
2023-05-20T19:09:33.494Z,17.45
2023-05-20T19:14:56.302Z,17.30
2023-05-20T19:20:19.856Z,17.21
2023-05-20T19:25:43.232Z,17.02
2023-05-20T19:31:06.449Z,16.87
2023-05-20T19:36:29.481Z,16.77
2023-05-20T19:41:53.499Z,16.69
2023-05-20T19:47:16.308Z,16.55
2023-05-20T19:52:39.311Z,16.39
2023-05-20T19:58:01.707Z,16.24
2023-05-20T20:03:25.507Z,16.12
2023-05-20T20:08:48.016Z,15.95
2023-05-20T20:14:10.283Z,15.89
2023-05-20T20:19:32.640Z,15.77
2023-05-20T20:24:55.150Z,15.63
2023-05-20T20:30:18.712Z,15.52
2023-05-20T20:35:41.409Z,15.43
2023-05-20T20:41:04.122Z,15.33
2023-05-20T20:46:38.114Z,15.21
2023-05-20T20:52:02.364Z,15.07
2023-05-20T20:57:26.282Z,14.96
2023-05-20T21:02:48.721Z,14.93
2023-05-20T21:08:13.417Z,14.87
2023-05-20T21:13:38.844Z,14.88
2023-05-20T21:19:01.285Z,14.82
2023-05-20T21:24:23.672Z,14.72
2023-05-20T21:29:46.139Z,14.68
2023-05-20T21:35:08.512Z,14.58
2023-05-20T21:40:31.804Z,14.48
2023-05-20T21:45:54.182Z,14.36
2023-05-20T21:51:16.527Z,14.25
2023-05-20T21:56:39.551Z,14.17
2023-05-20T22:02:02.109Z,14.11
2023-05-20T22:07:25.098Z,14.02
2023-05-20T22:12:51.239Z,14.00
2023-05-20T22:18:15.099Z,14.04
2023-05-20T22:23:38.196Z,14.04
2023-05-20T22:29:00.757Z,14.07
2023-05-20T22:34:23.127Z,14.08
2023-05-20T22:39:46.390Z,14.07
2023-05-20T22:45:08.739Z,14.01
2023-05-20T22:50:32.895Z,13.98
2023-05-20T22:55:56.167Z,13.98
2023-05-20T23:01:19.370Z,14.10
2023-05-20T23:06:41.780Z,14.10
2023-05-20T23:12:04.621Z,14.07
2023-05-20T23:17:27.039Z,14.06
2023-05-20T23:22:51.673Z,14.02
2023-05-20T23:28:13.974Z,13.98
2023-05-20T23:33:36.361Z,13.92
2023-05-20T23:38:58.893Z,13.89
2023-05-20T23:44:21.491Z,13.81
2023-05-20T23:49:47.860Z,13.79
2023-05-20T23:55:10.776Z,13.75
